• Join FlightAware (Why Join?)
  • Login
  • US Flag 
07:33AM EDT


 

Airport Tracker/Info


-or-


 

Live Flight TrackerFlight Track Log ✈ UAL1208 ✈ 02-May-2013 ✈ KSFO - KBWI

Flight Track Log - Related Links

Times and Time Zones

All times are in EDT time to prevent confusion due to time zone crossing. See the UAL1208 flight status page for this flight to view local times or setup timezone preferences in your user account.

Time Position Orientation Groundspeed Altitude Reporting Facility
EDT Latitude Longitude Course Direction KTS MPH feet Rate Location/Type
07:09PM 37.6950 -122.2890 46° Northeast 253 291 3,000  Level FlightAware
07:09PM 37.7170 -122.2600 46° Northeast 265 305 4,100 2,520 Climbing FlightAware
07:09PM 37.7290 -122.2440 47° Northeast 271 312 4,700 2,520 Climbing FlightAware
07:10PM 37.7550 -122.2080 48° Northeast 284 327 6,000 2,400 Climbing FlightAware
07:10PM 37.7620 -122.1960 54° Northeast 289 333 6,300 2,640 Climbing FlightAware
07:10PM 37.7720 -122.1680 66° East 295 339 7,100 3,060 Climbing FlightAware
07:11PM 37.7850 -122.1180 72° East 297 342 8,600 2,760 Climbing FlightAware
07:11PM 37.7900 -122.0990 72° East 294 338 9,200 2,160 Climbing FlightAware
07:12PM 37.8090 -122.0290 71° East 321 369 10,600 2,220 Climbing FlightAware
07:12PM 37.8270 -121.9570 72° East 330 380 12,200 2,400 Climbing FlightAware
07:13PM 37.8490 -121.8750 71° East 339 390 14,000 2,460 Climbing FlightAware
07:14PM 37.8700 -121.7960 71° East 344 396 15,700 2,220 Climbing FlightAware
07:15PM 37.8920 -121.7110 72° East 357 411 17,200 1,920 Climbing FlightAware
07:15PM 37.9130 -121.6310 72° East 370 426 18,500 1,980 Climbing FlightAware
07:16PM 37.9350 -121.5460 72° East 376 433 19,900 1,320 Climbing FlightAware
07:17PM 37.9610 -121.4460 72° East 414 476 20,400 900 Climbing FlightAware
07:17PM 37.9860 -121.3500 72° East 435 501 21,200 1,320 Climbing FlightAware
07:18PM 38.0110 -121.2530 72° East 443 510 22,200 1,500 Climbing FlightAware
07:19PM 38.0390 -121.1430 72° East 450 518 23,400 1,500 Climbing FlightAware
07:19PM 38.0650 -121.0430 72° East 455 524 24,400 1,380 Climbing FlightAware
07:20PM 38.0940 -120.9260 72° East 464 534 25,400 1,260 Climbing FlightAware
07:21PM 38.1180 -120.8230 73° East 471 542 26,200 1,080 Climbing FlightAware
07:22PM 38.1450 -120.7120 73° East 478 550 26,900 960 Climbing FlightAware
07:22PM 38.1730 -120.5960 73° East 485 558 27,600 1,020 Climbing FlightAware
07:23PM 38.2070 -120.4530 73° East 489 563 28,600 1,260 Climbing FlightAware
07:24PM 38.2290 -120.3270 77° East 489 563 29,600 1,020 Climbing FlightAware
07:25PM 38.2580 -120.1670 77° East 489 563 30,300 1,140 Climbing FlightAware
07:26PM 38.2770 -120.0470 79° East 489 563 31,500 1,380 Climbing FlightAware
07:26PM 38.2960 -119.9340 78° East 487 560 32,200 960 Climbing FlightAware
07:27PM 38.3180 -119.8080 77° East 489 563 32,900 960 Climbing FlightAware
07:28PM 38.3330 -119.7160 78° East 488 562 33,500 420 Climbing FlightAware
07:28PM 38.3520 -119.6030 78° East 488 562 33,500  Level FlightAware
07:29PM 38.3680 -119.5070 78° East 488 562 33,500 960 Level FlightAware
07:30PM 38.3960 -119.3340 78° East 489 563 35,000 840 Climbing FlightAware
07:31PM 38.4210 -119.1860 78° East 489 563 35,000  Level FlightAware
07:31PM 38.4370 -119.0900 78° East 489 563 35,000  Level FlightAware
07:32PM 38.4530 -118.9940 78° East 489 563 35,000  Level FlightAware
07:33PM 38.4690 -118.8980 78° East 489 563 35,000  Level FlightAware
07:34PM 38.4880 -118.7780 79° East 489 563 35,000  Level FlightAware
07:34PM 38.5080 -118.6580 78° East 489 563 35,000  Level FlightAware
07:35PM 38.5240 -118.5610 78° East 489 563 35,000  Level FlightAware
07:36PM 38.5440 -118.4410 78° East 489 563 35,000  Level FlightAware
07:37PM 38.5600 -118.3450 78° East 489 563 35,000  Level FlightAware
07:37PM 38.5760 -118.2490 78° East 489 563 35,000  Level FlightAware
07:38PM 38.5920 -118.1520 78° East 489 563 35,000  Level FlightAware
07:39PM 38.6120 -118.0320 78° East 489 563 35,000  Level FlightAware
07:39PM 38.6280 -117.9360 78° East 489 563 35,000  Level FlightAware
07:40PM 38.6440 -117.8390 78° East 489 563 35,000  Level FlightAware
07:40PM 38.6686 -117.5839 78° East 481 554 35,000  Level Oakland Center
07:41PM 38.6933 -117.4139 79° East 482 555 35,000  Level Oakland Center
07:42PM 38.7181 -117.2436 79° East 482 555 35,000  Level Salt Lake Center
07:43PM 38.7422 -117.0742 80° East 481 554 35,000  Level Salt Lake Center
07:44PM 38.7667 -116.9056 79° East 481 554 35,000  Level Oakland Center
07:45PM 38.7897 -116.7369 80° East 478 550 35,000  Level Salt Lake Center
07:46PM 38.8133 -116.5678 80° East 481 554 35,000  Level Salt Lake Center
07:47PM 38.8364 -116.3989 80° East 480 552 35,000  Level Salt Lake Center
07:48PM 38.8589 -116.2311 80° East 478 550 35,000  Level Salt Lake Center
07:49PM 38.8817 -116.0622 80° East 477 549 35,000  Level Salt Lake Center
07:50PM 38.9083 -115.8611 80° East 477 549 35,000  Level Salt Lake Center
07:52PM 38.9319 -115.6919 80° East 479 551 35,000  Level Salt Lake Center
07:53PM 38.9525 -115.5250 81° East 475 547 35,000  Level Salt Lake Center
07:54PM 38.9761 -115.3500 80° East 478 550 35,000  Level Salt Lake Center
07:55PM 38.9944 -115.1850 82° East 472 543 35,000  Level Salt Lake Center
07:56PM 39.0147 -115.0200 81° East 468 539 35,000  Level Salt Lake Center
07:57PM 39.0353 -114.8528 81° East 471 542 35,000  Level Salt Lake Center
07:58PM 39.0558 -114.6850 81° East 473 544 35,000  Level Salt Lake Center
07:59PM 39.0839 -114.4783 80° East 481 554 35,000  Level Salt Lake Center
08:00PM 39.1044 -114.3097 81° East 478 550 35,000  Level Salt Lake Center
08:01PM 39.1250 -114.1394 81° East 480 552 35,000  Level Salt Lake Center
08:02PM 39.1436 -113.9683 82° East 481 554 35,000  Level Salt Lake Center
08:03PM 39.1631 -113.7981 82° East 481 554 35,000  Level Salt Lake Center
08:04PM 39.1817 -113.6275 82° East 480 552 35,000  Level Salt Lake Center
08:05PM 39.2022 -113.4569 81° East 481 554 35,000  Level Salt Lake Center
08:06PM 39.2203 -113.2858 82° East 481 554 35,000  Level Salt Lake Center
08:07PM 39.2414 -113.0817 82° East 479 551 35,000  Level Salt Lake Center
08:12PM 39.3550 -112.2170 82° East 484 557 35,000  Level FlightAware
08:13PM 39.3760 -112.0990 77° East 484 557 35,000  Level FlightAware
08:14PM 39.3980 -111.9790 77° East 484 557 35,000  Level FlightAware
08:14PM 39.4150 -111.8830 77° East 484 557 35,000  Level FlightAware
08:15PM 39.4320 -111.7870 77° East 484 557 35,000  Level FlightAware
08:16PM 39.4490 -111.6910 77° East 484 557 35,000  Level FlightAware
08:16PM 39.4660 -111.5950 77° East 484 557 35,000  Level FlightAware
08:17PM 39.4870 -111.4750 77° East 484 557 35,000  Level FlightAware
08:18PM 39.5050 -111.3790 76° East 484 557 35,000  Level FlightAware
08:19PM 39.5220 -111.2830 77° East 484 557 35,000  Level FlightAware
08:19PM 39.5390 -111.1870 77° East 484 557 35,000  Level FlightAware
08:20PM 39.5560 -111.0900 77° East 484 557 35,000  Level FlightAware
08:21PM 39.5770 -110.9700 77° East 484 557 35,000  Level FlightAware
08:21PM 39.5940 -110.8740 77° East 484 557 35,000  Level FlightAware
08:22PM 39.6120 -110.7780 76° East 484 557 35,000  Level FlightAware
08:22PM 39.6181 -110.4872 76° East 474 545 35,000  Level Salt Lake Center
08:23PM 39.6422 -110.3283 79° East 470 541 35,000  Level Salt Lake Center
08:29PM 39.7780 -109.3360 79° East 466 536 35,000  Level FlightAware
08:30PM 39.7970 -109.1930 80° East 465 535 35,000  Level FlightAware
08:31PM 39.8100 -109.0960 80° East 464 534 35,000  Level FlightAware
08:31PM 39.8270 -108.9600 81° East 461 531 35,000  Level FlightAware
08:32PM 39.8410 -108.8510 80° East 459 528 35,000  Level FlightAware
08:33PM 39.8550 -108.7450 80° East 456 525 35,000  Level FlightAware
08:33PM 39.8680 -108.6490 80° East 455 524 35,000  Level FlightAware
08:34PM 39.8890 -108.4820 81° East 456 525 35,000  Level FlightAware
08:35PM 39.9020 -108.3730 81° East 458 527 35,000  Level FlightAware
08:36PM 39.9140 -108.2750 81° East 460 529 35,000  Level FlightAware
08:37PM 39.9310 -108.1440 80° East 463 533 35,000  Level FlightAware
08:37PM 39.9490 -107.9970 81° East 465 535 35,000  Level FlightAware
08:38PM 39.9640 -107.8740 81° East 474 545 35,000  Level FlightAware
08:39PM 39.9780 -107.7570 81° East 471 542 35,000  Level FlightAware
08:40PM 39.9910 -107.6470 81° East 468 539 35,000  Level FlightAware
08:41PM 40.0110 -107.4720 81° East 460 529 35,000  Level FlightAware
08:41PM 40.0240 -107.3610 81° East 459 528 35,000  Level FlightAware
08:42PM 40.0390 -107.2370 81° East 465 535 35,000  Level FlightAware
08:43PM 40.0510 -107.1260 82° East 466 536 35,000  Level FlightAware
08:43PM 40.0662 -106.9930 81° East 465 535 35,000  Level FlightAware ADS-B
08:44PM 40.0764 -106.9020 82° East 465 535 35,000  Level FlightAware ADS-B
08:44PM 40.0863 -106.8130 82° East 464 534 35,000  Level FlightAware ADS-B
08:45PM 40.0962 -106.7240 82° East 463 533 35,000  Level FlightAware ADS-B
08:46PM 40.1109 -106.5900 82° East 460 529 35,000  Level FlightAware ADS-B
08:46PM 40.1204 -106.5020 82° East 459 528 35,000  Level FlightAware ADS-B
08:47PM 40.1337 -106.3780 82° East 457 526 35,000  Level FlightAware ADS-B
08:48PM 40.1454 -106.2690 82° East 457 526 35,000  Level FlightAware ADS-B
08:48PM 40.1552 -106.1750 82° East 455 524 35,000  Level FlightAware ADS-B
08:49PM 40.1642 -106.0900 82° East 455 524 35,000  Level FlightAware ADS-B
08:49PM 40.1733 -106.0020 82° East 454 522 35,000  Level FlightAware ADS-B
08:50PM 40.1826 -105.9120 82° East 452 520 35,000  Level FlightAware ADS-B
08:51PM 40.1922 -105.8180 82° East 451 519 35,000  Level FlightAware ADS-B
08:51PM 40.2007 -105.7340 82° East 450 518 35,000  Level FlightAware ADS-B
08:52PM 40.2090 -105.6520 82° East 448 516 35,000  Level FlightAware ADS-B
08:52PM 40.2176 -105.5660 83° East 446 513 35,000  Level FlightAware ADS-B
08:53PM 40.2289 -105.4530 83° East 444 511 35,000  Level FlightAware ADS-B
08:53PM 40.2372 -105.3700 83° East 444 511 35,000  Level FlightAware ADS-B
08:54PM 40.2453 -105.2860 83° East 444 511 35,000  Level FlightAware ADS-B
08:54PM 40.2533 -105.2040 83° East 442 509 35,000  Level FlightAware ADS-B
08:55PM 40.2607 -105.1240 83° East 438 504 35,000  Level FlightAware ADS-B
08:55PM 40.2684 -105.0440 83° East 435 501 35,000  Level FlightAware ADS-B
08:56PM 40.2759 -104.9650 83° East 433 498 35,000  Level FlightAware ADS-B
08:56PM 40.2836 -104.8850 83° East 434 499 35,000  Level FlightAware ADS-B
08:57PM 40.2911 -104.8060 83° East 436 502 35,000  Level FlightAware ADS-B
08:57PM 40.2985 -104.7270 83° East 438 504 35,000  Level FlightAware ADS-B
08:58PM 40.3058 -104.6470 83° East 442 509 35,000  Level FlightAware ADS-B
08:58PM 40.3130 -104.5670 83° East 445 512 35,000  Level FlightAware ADS-B
08:59PM 40.3202 -104.4870 83° East 444 511 35,000  Level FlightAware ADS-B
08:59PM 40.3275 -104.4050 83° East 444 511 35,000  Level FlightAware ADS-B
09:00PM 40.3347 -104.3250 83° East 446 513 35,000  Level FlightAware ADS-B
09:00PM 40.3419 -104.2440 83° East 445 512 35,000  Level FlightAware ADS-B
09:01PM 40.3491 -104.1640 83° East 444 511 35,000  Level FlightAware ADS-B
09:01PM 40.3559 -104.0840 84° East 444 511 35,000  Level FlightAware ADS-B
09:02PM 40.3634 -103.9960 84° East 446 513 35,000  Level FlightAware ADS-B
09:02PM 40.3704 -103.9150 84° East 446 513 35,000  Level FlightAware ADS-B
09:03PM 40.3772 -103.8350 84° East 449 517 35,000  Level FlightAware ADS-B
09:03PM 40.3842 -103.7530 84° East 456 525 35,000  Level FlightAware ADS-B
09:04PM 40.3913 -103.6680 84° East 457 526 35,000  Level FlightAware ADS-B
09:04PM 40.3980 -103.5860 84° East 457 526 35,000 60 Level FlightAware ADS-B
09:05PM 40.4047 -103.5030 84° East 458 527 35,100 840 Climbing FlightAware ADS-B
09:06PM 40.4114 -103.4200 84° East 448 516 35,900 1,320 Climbing FlightAware ADS-B
09:06PM 40.4182 -103.3360 84° East 442 509 36,500 1,020 Climbing FlightAware ADS-B
09:07PM 40.4245 -103.2560 84° East 436 502 37,000 480 Climbing FlightAware ADS-B
09:07PM 40.4309 -103.1770 84° East 441 507 37,000  Level FlightAware ADS-B
09:08PM 40.4375 -103.0940 84° East 445 512 37,000  Level FlightAware ADS-B
09:08PM 40.4440 -103.0110 84° East 451 519 37,000  Level FlightAware ADS-B
09:09PM 40.4504 -102.9260 84° East 457 526 37,000  Level FlightAware ADS-B
09:09PM 40.4567 -102.8430 84° East 461 531 37,000  Level FlightAware ADS-B
09:10PM 40.4631 -102.7580 84° East 464 534 37,000  Level FlightAware ADS-B
09:10PM 40.4693 -102.6750 84° East 463 533 37,000  Level FlightAware ADS-B
09:11PM 40.4755 -102.5900 84° East 464 534 37,000  Level FlightAware ADS-B
09:11PM 40.4816 -102.5060 85° East 464 534 37,000  Level FlightAware ADS-B
09:12PM 40.4880 -102.4150 85° East 463 533 37,000  Level FlightAware ADS-B
09:12PM 40.4944 -102.3260 85° East 463 533 37,000  Level FlightAware ADS-B
09:13PM 40.5005 -102.2400 85° East 462 532 37,000  Level FlightAware ADS-B
09:13PM 40.5068 -102.1540 84° East 461 531 37,000  Level FlightAware ADS-B
09:14PM 40.5129 -102.0670 85° East 461 531 37,000  Level FlightAware ADS-B
09:14PM 40.5186 -101.9840 85° East 461 531 37,000  Level FlightAware ADS-B
09:15PM 40.5242 -101.9000 85° East 462 532 37,000  Level FlightAware ADS-B
09:15PM 40.5299 -101.8150 85° East 464 534 37,000  Level FlightAware ADS-B
09:16PM 40.5363 -101.7180 85° East 468 539 37,000  Level FlightAware ADS-B
09:16PM 40.5420 -101.6310 85° East 469 540 37,000  Level FlightAware ADS-B
09:17PM 40.5489 -101.5250 85° East 470 541 37,000  Level FlightAware ADS-B
09:17PM 40.5548 -101.4320 85° East 472 543 37,000  Level FlightAware ADS-B
09:18PM 40.5607 -101.3400 85° East 473 544 37,000  Level FlightAware ADS-B
09:19PM 40.5662 -101.2520 85° East 474 545 37,000  Level FlightAware ADS-B
09:19PM 40.5716 -101.1610 86° East 474 545 37,000  Level FlightAware ADS-B
09:20PM 40.5822 -100.9769 86° East 474 545 37,000  Level Denver Center
09:21PM 40.5939 -100.7861 85° East 475 547 37,000  Level Denver Center
09:22PM 40.6025 -100.6242 86° East 472 543 37,000  Level Denver Center
09:23PM 40.6131 -100.4339 86° East 472 543 37,000  Level Denver Center
09:24PM 40.6222 -100.2717 86° East 468 539 37,000  Level Denver Center
09:25PM 40.6317 -100.0811 86° East 469 540 37,000  Level Denver Center
09:26PM 40.6408 -99.9175 86° East 470 541 37,000  Level Denver Center
09:28PM 40.6489 -99.7397 87° East 467 537 37,000  Level Denver Center
09:29PM 40.6578 -99.5689 86° East 468 539 37,000  Level Denver Center
09:30PM 40.6669 -99.3647 87° East 468 539 37,000  Level Denver Center
09:31PM 40.6747 -99.1961 86° East 464 534 37,000  Level Denver Center
09:31PM 40.6806 -99.0617 87° East 466 536 37,000  Level Minneapolis Center
09:32PM 40.6867 -98.8933 87° East 465 535 37,000  Level Minneapolis Center
09:34PM 40.6942 -98.7239 87° East 466 536 37,000  Level Minneapolis Center
09:35PM 40.7006 -98.5525 87° East 471 542 37,000  Level Minneapolis Center
09:36PM 40.7075 -98.3447 87° East 475 547 37,000  Level Minneapolis Center
09:37PM 40.7139 -98.1722 87° East 474 545 37,000  Level Minneapolis Center
09:38PM 40.7200 -97.9994 87° East 475 547 37,000  Level Minneapolis Center
09:39PM 40.7256 -97.8250 88° East 477 549 37,000  Level Minneapolis Center
09:40PM 40.7311 -97.6486 88° East 480 552 37,000  Level Minneapolis Center
09:41PM 40.7361 -97.4717 88° East 483 556 37,000  Level Minneapolis Center
09:42PM 40.7417 -97.2850 88° East 484 557 37,000  Level Minneapolis Center
09:43PM 40.7469 -97.1089 88° East 484 557 37,000  Level Minneapolis Center
09:44PM 40.7511 -96.9311 88° East 486 559 37,000  Level Minneapolis Center
09:45PM 40.7544 -96.7556 89° East 483 556 37,000  Level Minneapolis Center
09:50PM 40.7730 -95.8730 89° East 483 556 37,000  Level FlightAware
09:51PM 40.7740 -95.7730 89° East 483 556 37,000  Level FlightAware
09:52PM 40.7750 -95.6720 89° East 483 556 37,000  Level FlightAware
09:52PM 40.7770 -95.5720 88° East 483 556 37,000  Level FlightAware
09:53PM 40.7780 -95.4470 89° East 483 556 37,000  Level FlightAware
09:54PM 40.7800 -95.3460 88° East 483 556 37,000  Level FlightAware
10:00PM 40.7860 -94.1520 89° East 467 537 37,000  Level FlightAware
10:01PM 40.7860 -94.0040 90° East 468 539 37,000  Level FlightAware
10:01PM 40.7860 -93.9310 90° East 468 539 37,000  Level FlightAware
10:02PM 40.7860 -93.8100 90° East 468 539 37,000  Level FlightAware
10:03PM 40.7860 -93.7120 90° East 468 539 37,000  Level FlightAware
10:03PM 40.7850 -93.5320 90° East 457 526 37,000  Level FlightAware
10:04PM 40.7840 -93.4210 91° East 455 524 37,000  Level FlightAware
10:05PM 40.7830 -93.2960 91° East 456 525 37,000  Level FlightAware
10:05PM 40.7820 -93.1810 91° East 459 528 37,000  Level FlightAware
10:06PM 40.7810 -93.0590 91° East 458 527 37,000  Level FlightAware
10:07PM 40.7800 -92.9480 91° East 457 526 37,000  Level FlightAware
10:08PM 40.7790 -92.8370 91° East 457 526 37,000  Level FlightAware
10:08PM 40.7780 -92.7180 91° East 457 526 37,000  Level FlightAware
10:09PM 40.7760 -92.6010 91° East 456 525 37,000  Level FlightAware
10:10PM 40.7740 -92.4760 91° East 457 526 37,000  Level FlightAware
10:11PM 40.7720 -92.3250 91° East 457 526 37,000  Level FlightAware
10:11PM 40.7700 -92.2100 91° East 458 527 37,000  Level FlightAware
10:12PM 40.7680 -92.0870 91° East 458 527 37,000  Level FlightAware
10:13PM 40.7660 -91.9800 91° East 458 527 37,000  Level FlightAware
10:13PM 40.7640 -91.8620 91° East 455 524 37,000  Level FlightAware
10:14PM 40.7610 -91.7430 92° East 454 522 37,000  Level FlightAware
10:15PM 40.7590 -91.6290 91° East 455 524 37,000  Level FlightAware
10:16PM 40.7560 -91.5040 92° East 455 524 37,000  Level FlightAware
10:16PM 40.7540 -91.3910 91° East 455 524 37,000  Level FlightAware
10:17PM 40.7510 -91.2950 92° East 457 526 37,000  Level FlightAware
10:18PM 40.7480 -91.1540 92° East 458 527 37,000  Level FlightAware
10:18PM 40.7450 -91.0450 92° East 459 528 37,000  Level FlightAware
10:19PM 40.7420 -90.9170 92° East 460 529 37,000  Level FlightAware
10:20PM 40.7390 -90.8370 93° East 461 531 37,000  Level FlightAware
10:20PM 40.7350 -90.6940 92° East 463 533 37,000  Level FlightAware
10:21PM 40.7320 -90.5780 92° East 463 533 37,000  Level FlightAware
10:22PM 40.7280 -90.4540 92° East 464 534 37,000  Level FlightAware
10:22PM 40.7240 -90.3420 93° East 465 535 37,000  Level FlightAware
10:23PM 40.7200 -90.2190 92° East 465 535 37,000  Level FlightAware
10:24PM 40.7160 -90.1010 93° East 464 534 37,000  Level FlightAware
10:25PM 40.7120 -89.9910 93° East 465 535 37,000  Level FlightAware
10:25PM 40.7080 -89.8670 92° East 466 536 37,000  Level FlightAware
10:26PM 40.7040 -89.7580 93° East 467 537 37,000  Level FlightAware
10:27PM 40.6980 -89.6200 93° East 468 539 37,000  Level FlightAware
10:27PM 40.6940 -89.5150 93° East 469 540 37,000  Level FlightAware
10:28PM 40.6890 -89.3780 93° East 470 541 37,000  Level FlightAware
10:29PM 40.6840 -89.2610 93° East 471 542 37,000  Level FlightAware
10:29PM 40.6790 -89.1490 93° East 469 540 37,000  Level FlightAware
10:30PM 40.6740 -89.0390 93° East 466 536 37,000  Level FlightAware
10:31PM 40.6690 -88.9140 93° East 464 534 37,000  Level FlightAware
10:32PM 40.6640 -88.8040 93° East 462 532 37,000  Level FlightAware
10:32PM 40.6580 -88.6730 93° East 462 532 37,000  Level FlightAware
10:33PM 40.6520 -88.5610 94° East 461 531 37,000  Level FlightAware
10:34PM 40.6470 -88.4510 93° East 459 528 37,000  Level FlightAware
10:34PM 40.6410 -88.3340 94° East 459 528 37,000  Level FlightAware
10:35PM 40.6350 -88.2140 94° East 460 529 37,000  Level FlightAware
10:36PM 40.6280 -88.0870 94° East 461 531 37,000  Level FlightAware
10:36PM 40.6230 -87.9740 93° East 464 534 37,000  Level FlightAware
10:37PM 40.6160 -87.8480 94° East 465 535 37,000  Level FlightAware
10:38PM 40.6090 -87.7330 95° East 466 536 37,000  Level FlightAware
10:39PM 40.6030 -87.6210 94° East 467 537 37,000  Level FlightAware
10:39PM 40.5960 -87.4950 94° East 469 540 37,000  Level FlightAware
10:40PM 40.5900 -87.3970 95° East 470 541 37,000  Level FlightAware
10:41PM 40.5830 -87.2620 94° East 470 541 37,000  Level FlightAware
10:41PM 40.5760 -87.1480 95° East 468 539 37,000  Level FlightAware
10:42PM 40.5680 -87.0230 95° East 467 537 37,000  Level FlightAware
10:43PM 40.5610 -86.9040 94° East 466 536 37,000  Level FlightAware
10:43PM 40.5530 -86.7840 95° East 465 535 37,000  Level FlightAware
10:44PM 40.5460 -86.6810 95° East 464 534 37,000  Level FlightAware
10:45PM 40.5380 -86.5460 94° East 459 528 37,000  Level FlightAware
10:46PM 40.5310 -86.4480 95° East 454 522 37,000  Level FlightAware
10:46PM 40.5220 -86.3170 95° East 453 521 37,000  Level FlightAware
10:47PM 40.5150 -86.2050 95° East 452 520 37,000  Level FlightAware
10:48PM 40.5030 -86.0380 95° East 454 522 37,000  Level FlightAware
10:49PM 40.4940 -85.9100 95° East 455 524 37,000  Level FlightAware
10:50PM 40.4850 -85.7820 95° East 457 526 37,000  Level FlightAware
10:50PM 40.4750 -85.6560 96° East 456 525 37,000  Level FlightAware
10:51PM 40.4650 -85.5510 97° East 457 526 37,000  Level FlightAware
10:52PM 40.4550 -85.4260 96° East 457 526 37,000  Level FlightAware
10:52PM 40.4450 -85.3170 97° East 458 527 37,000  Level FlightAware
10:53PM 40.4360 -85.2110 96° East 458 527 37,000  Level FlightAware
10:54PM 40.4240 -85.0780 97° East 459 528 37,000  Level FlightAware
10:54PM 40.4150 -84.9710 96° East 459 528 37,000  Level FlightAware
10:55PM 40.4030 -84.8440 97° East 457 526 37,000  Level FlightAware
10:56PM 40.3920 -84.7290 97° East 455 524 37,000  Level FlightAware
10:57PM 40.3820 -84.6200 97° East 454 522 37,000  Level FlightAware
10:57PM 40.3710 -84.4990 97° East 452 520 37,000  Level FlightAware
10:58PM 40.3600 -84.3890 97° East 451 519 37,000  Level FlightAware
10:59PM 40.3490 -84.2720 97° East 450 518 37,000  Level FlightAware
10:59PM 40.3390 -84.1640 97° East 449 517 37,000  Level FlightAware
11:00PM 40.3280 -84.0540 97° East 447 514 37,000  Level FlightAware
11:01PM 40.3160 -83.9340 97° East 445 512 37,000  Level FlightAware
11:01PM 40.3050 -83.8260 98° East 444 511 37,000  Level FlightAware
11:02PM 40.2930 -83.7080 98° East 443 510 37,000  Level FlightAware
11:03PM 40.2820 -83.6010 98° East 444 511 37,000  Level FlightAware
11:04PM 40.2710 -83.4920 97° East 449 517 37,000  Level FlightAware
11:04PM 40.2590 -83.3760 98° East 450 518 37,000  Level FlightAware
11:05PM 40.2480 -83.2680 98° East 451 519 37,000  Level FlightAware
11:06PM 40.2350 -83.1460 98° East 453 521 37,000  Level FlightAware
11:06PM 40.2230 -83.0360 98° East 454 522 37,000  Level FlightAware
11:07PM 40.2110 -82.9260 98° East 457 526 37,000  Level FlightAware
11:08PM 40.1980 -82.8050 98° East 458 527 37,000  Level FlightAware
11:08PM 40.1860 -82.6930 98° East 458 527 37,000  Level FlightAware
11:09PM 40.1720 -82.5720 99° East 458 527 37,000  Level FlightAware
11:10PM 40.1620 -82.4780 98° East 457 526 37,000  Level FlightAware
11:10PM 40.1490 -82.3660 99° East 456 525 37,000  Level FlightAware
11:11PM 40.1330 -82.2430 100° East 454 522 37,000  Level FlightAware
11:12PM 40.1180 -82.1380 101° East 454 522 37,000  Level FlightAware
11:13PM 40.1030 -82.0260 100° East 453 521 37,000  Level FlightAware
11:13PM 40.0870 -81.9090 100° East 452 520 37,000  Level FlightAware
11:14PM 40.0720 -81.8020 100° East 454 522 37,000  Level FlightAware
11:15PM 40.0570 -81.6930 100° East 454 522 37,000  Level FlightAware
11:15PM 40.0400 -81.5740 101° East 455 524 37,000  Level FlightAware
11:16PM 40.0250 -81.4660 100° East 455 524 37,000  Level FlightAware
11:17PM 40.0070 -81.3430 101° East 457 526 37,000  Level FlightAware
11:17PM 39.9910 -81.2330 101° East 458 527 37,000  Level FlightAware
11:18PM 39.9760 -81.1260 100° East 460 529 37,000  Level FlightAware
11:19PM 39.9580 -81.0050 101° East 461 531 37,000  Level FlightAware
11:20PM 39.9410 -80.8920 101° East 462 532 37,000  Level FlightAware
11:20PM 39.9240 -80.7710 100° East 462 532 37,000  Level FlightAware
11:21PM 39.9070 -80.6600 101° East 463 533 37,000  Level FlightAware
11:22PM 39.8890 -80.5400 101° East 463 533 37,000  Level FlightAware
11:22PM 39.8740 -80.4400 101° East 463 533 37,000  Level FlightAware
11:23PM 39.8560 -80.3240 101° East 463 533 37,000  Level FlightAware
11:24PM 39.8370 -80.2010 101° East 464 534 37,000  Level FlightAware
11:24PM 39.8220 -80.1030 101° East 464 534 37,000  Level FlightAware
11:25PM 39.8010 -79.9690 101° East 463 533 37,000 -240 Level FlightAware
11:26PM 39.7860 -79.8680 101° East 457 526 36,700 -1,560 Descending FlightAware
11:27PM 39.7660 -79.7430 102° East 454 522 34,800 -2,760 Descending FlightAware
11:27PM 39.7490 -79.6360 102° East 458 527 32,800 -2,700 Descending FlightAware
11:28PM 39.7320 -79.5320 102° East 453 521 31,200 -2,400 Descending FlightAware
11:29PM 39.7130 -79.4140 102° East 442 509 29,400 -2,280 Descending FlightAware
11:29PM 39.6960 -79.3090 102° East 433 498 28,000 -2,220 Descending FlightAware
11:30PM 39.6790 -79.2060 102° East 424 488 26,500 -2,160 Descending FlightAware
11:31PM 39.6610 -79.0950 102° East 412 474 25,000 -1,740 Descending FlightAware
11:31PM 39.6410 -79.0030 106° East 397 457 24,100 -1,800 Descending FlightAware
11:32PM 39.6230 -78.9160 105° East 391 450 22,600 -2,160 Descending FlightAware
11:33PM 39.6000 -78.8130 106° East 384 442 21,100 -1,140 Descending FlightAware
11:34PM 39.5810 -78.7240 105° East 381 438 21,000 -120 Descending FlightAware
11:34PM 39.5590 -78.6230 106° East 384 442 21,000 -120 Level FlightAware
11:35PM 39.5400 -78.5380 106° East 380 437 20,900 -1,080 Descending FlightAware
11:36PM 39.5180 -78.4380 106° East 370 426 19,500 -1,800 Descending FlightAware
11:36PM 39.4990 -78.3540 106° East 358 412 18,400 -1,920 Descending FlightAware
11:37PM 39.4810 -78.2730 106° East 357 411 17,000 -2,280 Descending FlightAware
11:38PM 39.4610 -78.1800 106° East 355 409 15,200 -1,740 Descending FlightAware
11:38PM 39.4430 -78.1010 106° East 332 382 14,600 -480 Descending FlightAware
11:39PM 39.4260 -78.0250 106° East 327 376 14,600  Level FlightAware
11:40PM 39.4130 -77.9670 106° East 325 374 14,600  Level FlightAware
11:41PM 39.3920 -77.8750 106° East 327 376 14,600  Level FlightAware
11:41PM 39.3950 -77.7780 88° East 331 381 14,600  Level FlightAware
11:42PM 39.4030 -77.7010 82° East 326 375 14,600 -900 Level FlightAware
11:43PM 39.4000 -77.6180 93° East 313 360 13,400 -1,560 Descending FlightAware
11:43PM 39.3960 -77.5490 94° East 306 352 12,400 -1,620 Descending FlightAware
11:44PM 39.3920 -77.4700 94° East 298 343 11,300 -1,680 Descending FlightAware
11:45PM 39.3870 -77.3910 95° East 289 333 10,100 -1,380 Descending FlightAware
11:45PM 39.3850 -77.3530 94° East 283 326 9,700 -1,200 Descending FlightAware
11:46PM 39.3820 -77.3000 94° East 272 313 9,000 -1,560 Descending FlightAware
11:46PM 39.3800 -77.2580 94° East 268 308 8,300 -1,800 Descending FlightAware
11:47PM 39.3770 -77.2110 95° East 265 305 7,400 -1,740 Descending FlightAware
11:47PM 39.3740 -77.1660 95° East 262 302 6,600 -1,680 Descending FlightAware
11:48PM 39.3720 -77.1260 94° East 256 295 5,900 -1,560 Descending FlightAware
11:48PM 39.3690 -77.0850 95° East 252 290 5,200 -1,440 Descending FlightAware
11:48PM 39.3670 -77.0510 94° East 248 285 4,600 -1,560 Descending FlightAware
11:49PM 39.3600 -77.0150 104° East 245 282 3,900 -1,500 Descending FlightAware
11:49PM 39.3550 -77.0000 113° Southeast 243 280 3,600 -1,440 Descending FlightAware
11:50PM 39.3350 -76.9340 111° Southeast 226 260 2,500 -1,320 Descending FlightAware
11:50PM 39.3270 -76.9070 111° Southeast 204 235 2,100 -480 Descending FlightAware
11:51PM 39.3180 -76.8760 111° Southeast 167 192 2,100  Level FlightAware
11:51PM 39.3110 -76.8520 111° Southeast 163 188 2,100  Level FlightAware
11:52PM 39.3030 -76.8270 112° Southeast 162 186 2,100  Level FlightAware
11:52PM 39.2960 -76.8040 111° Southeast 162 186 2,100  Level FlightAware
11:52PM 39.2900 -76.7870 115° Southeast 163 188 2,100 -120 Level FlightAware
11:53PM 39.2750 -76.7650 131° Southeast 170 196 2,000 -540 Descending FlightAware
11:53PM 39.2580 -76.7490 144° Southeast 159 183 1,600 -540 Descending FlightAware
11:54PM 39.2420 -76.7340 144° Southeast 159 183 1,500 -240 Descending FlightAware